createdAt,value
2018-12-19T00:02:09.508Z,70.43
2018-12-19T00:04:43.709Z,72.47
2018-12-19T00:07:23.877Z,76.17
2018-12-19T00:10:00.639Z,79.30
2018-12-19T00:12:46.281Z,89.03
2018-12-19T00:15:25.107Z,70.70
2018-12-19T00:18:01.412Z,73.07
2018-12-19T00:35:37.995Z,68.33
2018-12-19T00:38:14.511Z,68.77
2018-12-19T00:40:47.992Z,47.43
2018-12-19T00:43:33.140Z,61.00
2018-12-19T00:46:06.641Z,56.23
2018-12-19T00:48:40.360Z,62.03
2018-12-19T00:51:24.027Z,64.23
2018-12-19T00:53:57.494Z,66.97
2018-12-19T00:56:32.977Z,66.33
2018-12-19T00:59:06.429Z,68.73
2018-12-19T01:05:01.488Z,61.80
2018-12-19T01:10:41.328Z,57.80
2018-12-19T01:13:17.815Z,63.77
2018-12-19T01:15:56.342Z,54.77
2018-12-19T01:18:33.303Z,53.10
2018-12-19T01:21:18.087Z,55.87
2018-12-19T01:23:59.115Z,48.53
2018-12-19T01:26:39.755Z,53.60
2018-12-19T01:35:06.407Z,62.67
2018-12-19T01:37:45.749Z,44.00
2018-12-19T01:43:22.763Z,45.67
2018-12-19T01:45:58.896Z,49.70
2018-12-19T01:48:51.840Z,46.63
2018-12-19T01:51:28.885Z,51.77
2018-12-19T01:54:20.261Z,50.30
2018-12-19T01:57:11.600Z,46.10
2018-12-19T01:59:58.175Z,61.33
2018-12-19T02:02:39.087Z,35.90
2018-12-19T02:05:28.775Z,46.23
2018-12-19T02:08:22.135Z,49.73
2018-12-19T02:11:00.945Z,45.27
2018-12-19T02:13:45.699Z,47.20
2018-12-19T02:16:31.442Z,53.07
2018-12-19T02:25:28.900Z,48.67
2018-12-19T02:31:11.627Z,46.60
2018-12-19T02:39:59.822Z,47.60
2018-12-19T02:42:49.247Z,54.40
2018-12-19T02:48:26.310Z,42.27
2018-12-19T02:50:59.779Z,51.67
2018-12-19T02:56:41.662Z,49.33
2018-12-19T02:59:15.182Z,47.97
2018-12-19T03:01:59.588Z,57.97
2018-12-19T03:04:40.038Z,56.83
2018-12-19T03:07:21.376Z,55.83
2018-12-19T03:09:54.886Z,50.00
2018-12-19T03:12:34.083Z,45.43
2018-12-19T03:15:07.669Z,53.70
2018-12-19T03:17:41.137Z,51.73
2018-12-19T03:20:14.641Z,45.03
2018-12-19T03:23:00.035Z,41.90
2018-12-19T03:25:33.533Z,48.83
2018-12-19T03:28:06.996Z,55.27
2018-12-19T03:30:40.505Z,51.23
2018-12-19T03:33:14.030Z,48.40
2018-12-19T03:35:47.539Z,56.23
2018-12-19T03:38:23.825Z,53.90
2018-12-19T03:40:57.717Z,39.33
2018-12-19T03:43:44.359Z,46.93
2018-12-19T03:46:17.857Z,41.83
2018-12-19T03:48:56.806Z,35.87
2018-12-19T03:51:50.016Z,49.73
2018-12-19T03:54:24.064Z,49.70
2018-12-19T03:56:57.856Z,44.27
2018-12-19T03:59:31.330Z,52.70
2018-12-19T04:02:05.808Z,46.10
2018-12-19T04:04:39.274Z,51.93
2018-12-19T04:07:12.782Z,54.57
2018-12-19T04:09:46.271Z,50.20
2018-12-19T04:12:25.549Z,52.00
2018-12-19T04:14:59.249Z,44.50
2018-12-19T04:17:47.862Z,53.03
2018-12-19T04:20:21.348Z,54.17
2018-12-19T04:22:58.057Z,43.63
2018-12-19T04:25:31.553Z,58.43
2018-12-19T04:28:12.279Z,51.53
2018-12-19T04:30:45.773Z,47.90
2018-12-19T04:33:25.066Z,43.57
2018-12-19T04:35:58.647Z,56.83
2018-12-19T04:38:39.620Z,45.17
2018-12-19T04:41:26.093Z,48.40
2018-12-19T04:44:00.568Z,46.20
2018-12-19T04:46:37.371Z,45.50
2018-12-19T04:49:20.554Z,44.07
2018-12-19T04:51:59.477Z,47.63
2018-12-19T04:57:41.341Z,32.67
2018-12-19T05:00:18.157Z,51.93
2018-12-19T05:06:12.886Z,38.97
2018-12-19T05:08:49.625Z,43.23
2018-12-19T05:11:23.079Z,38.60
2018-12-19T05:13:56.517Z,42.73
2018-12-19T05:19:34.885Z,36.70
2018-12-19T05:22:17.745Z,37.83
2018-12-19T05:24:58.292Z,28.77
2018-12-19T05:27:31.721Z,35.83
2018-12-19T05:30:07.638Z,39.47
2018-12-19T05:32:41.067Z,33.10
2018-12-19T05:35:20.351Z,34.00
2018-12-19T05:49:56.936Z,41.00
2018-12-19T05:52:49.061Z,40.97
2018-12-19T05:55:29.151Z,24.03
2018-12-19T06:04:19.554Z,33.63
2018-12-19T06:15:58.799Z,32.53
2018-12-19T06:18:37.900Z,35.57
2018-12-19T06:21:12.771Z,21.93
2018-12-19T06:36:07.300Z,31.07
2018-12-19T06:41:41.327Z,38.83
2018-12-19T06:44:18.051Z,33.00
2018-12-19T06:50:02.167Z,29.30
2018-12-19T06:52:38.599Z,38.77
2018-12-19T06:58:09.672Z,33.83
2018-12-19T07:00:43.131Z,27.93
2018-12-19T07:03:17.639Z,29.27
2018-12-19T07:06:06.703Z,34.53
2018-12-19T07:08:44.579Z,28.20
2018-12-19T07:11:18.055Z,20.57
2018-12-19T07:13:54.683Z,30.13
2018-12-19T07:16:28.187Z,26.27
2018-12-19T07:19:01.678Z,31.40
2018-12-19T07:21:35.142Z,28.63
2018-12-19T07:24:09.074Z,33.10
2018-12-19T07:26:42.548Z,33.70
2018-12-19T07:29:16.263Z,32.30
2018-12-19T07:31:49.723Z,34.47
2018-12-19T07:34:31.019Z,28.27
2018-12-19T07:37:04.499Z,29.90
2018-12-19T07:39:40.396Z,28.80
2018-12-19T07:42:13.861Z,26.97
2018-12-19T07:44:47.491Z,29.40
2018-12-19T07:47:20.933Z,30.70
2018-12-19T07:49:54.711Z,30.00
2018-12-19T07:52:28.182Z,30.70
2018-12-19T07:55:03.543Z,28.30
2018-12-19T07:57:54.641Z,25.10
2018-12-19T08:00:28.163Z,26.60
2018-12-19T08:03:03.792Z,30.20
2018-12-19T08:05:37.298Z,35.03
2018-12-19T08:08:21.050Z,33.73
2018-12-19T08:14:00.431Z,25.67
2018-12-19T08:16:51.346Z,31.63
2018-12-19T08:19:24.834Z,24.70
2018-12-19T08:22:04.505Z,33.37
2018-12-19T08:59:25.112Z,29.60
2018-12-19T09:01:58.699Z,29.27
2018-12-19T09:04:32.312Z,27.00
2018-12-19T09:07:06.924Z,30.33
2018-12-19T09:09:40.502Z,25.87
2018-12-19T09:12:15.036Z,34.13
2018-12-19T09:14:48.607Z,30.27
2018-12-19T09:17:22.168Z,28.67
2018-12-19T09:19:55.954Z,27.47
2018-12-19T09:25:31.931Z,26.57
2018-12-19T09:28:11.362Z,28.23
2018-12-19T09:30:44.955Z,29.37
2018-12-19T09:36:29.886Z,27.27
2018-12-19T09:45:18.427Z,25.03
2018-12-19T09:48:06.558Z,25.70
2018-12-19T09:50:40.088Z,30.03
2018-12-19T10:02:40.297Z,24.30
2018-12-19T10:14:34.052Z,22.63
2018-12-19T10:17:09.384Z,25.03
2018-12-19T10:22:45.090Z,24.23
2018-12-19T10:25:40.518Z,24.73
2018-12-19T10:37:37.916Z,26.57
2018-12-19T10:49:07.601Z,28.43
2018-12-19T10:51:43.740Z,26.50
2018-12-19T10:54:29.617Z,27.23
2018-12-19T10:57:04.252Z,22.57
2018-12-19T10:59:37.752Z,29.13
2018-12-19T11:02:11.559Z,28.97
2018-12-19T11:04:50.179Z,28.83
2018-12-19T11:07:23.635Z,25.97
2018-12-19T11:09:57.392Z,28.17
2018-12-19T11:12:30.852Z,31.43
2018-12-19T11:15:05.135Z,27.77
2018-12-19T11:17:38.736Z,25.63
2018-12-19T11:20:16.042Z,27.60
2018-12-19T11:22:49.539Z,22.77
2018-12-19T11:25:23.095Z,27.17
2018-12-19T11:27:56.560Z,22.83
2018-12-19T11:30:31.316Z,28.40
2018-12-19T11:33:04.785Z,28.50
2018-12-19T11:35:38.524Z,21.60
2018-12-19T11:59:20.463Z,24.10
2018-12-19T12:01:58.007Z,18.83
2018-12-19T12:04:36.760Z,25.63
2018-12-19T12:07:10.556Z,20.97
2018-12-19T12:09:47.549Z,24.23
2018-12-19T12:12:21.019Z,26.63
2018-12-19T12:15:06.019Z,21.37
2018-12-19T12:17:40.341Z,22.43
2018-12-19T12:35:40.311Z,20.20
2018-12-19T12:38:33.910Z,22.63
2018-12-19T12:41:09.443Z,23.13
2018-12-19T12:43:42.933Z,22.93
2018-12-19T12:49:18.071Z,22.03
2018-12-19T12:51:57.923Z,25.93
2018-12-19T12:54:31.406Z,20.10
2018-12-19T12:57:12.826Z,19.40
2018-12-19T12:59:46.312Z,21.53
2018-12-19T13:02:22.123Z,21.00
2018-12-19T13:04:56.865Z,23.37
2018-12-19T13:07:30.336Z,23.83
2018-12-19T13:25:50.379Z,24.37
2018-12-19T13:28:42.923Z,28.77
2018-12-19T13:31:16.408Z,26.07
2018-12-19T13:36:50.094Z,26.40
2018-12-19T13:39:23.550Z,20.67
2018-12-19T13:42:05.543Z,23.13
2018-12-19T13:44:42.074Z,26.23
2018-12-19T13:47:18.582Z,25.00
2018-12-19T13:49:59.866Z,27.63
2018-12-19T13:52:39.204Z,23.37
2018-12-19T13:55:18.520Z,23.17
2018-12-19T13:57:55.743Z,22.97
2018-12-19T14:00:29.226Z,27.63
2018-12-19T14:03:08.472Z,26.47
2018-12-19T14:05:47.751Z,26.73
2018-12-19T14:08:21.279Z,27.70
2018-12-19T14:10:54.954Z,27.23
2018-12-19T14:13:28.442Z,23.53
2018-12-19T14:16:04.210Z,26.30
2018-12-19T14:18:46.943Z,27.00
2018-12-19T14:24:32.683Z,28.93
2018-12-19T14:27:13.510Z,27.33
2018-12-19T14:29:46.964Z,26.77
2018-12-19T14:32:32.982Z,28.57
2018-12-19T14:38:20.944Z,28.27
2018-12-19T14:44:20.532Z,31.27
2018-12-19T14:59:02.743Z,31.63
2018-12-19T15:04:49.181Z,26.87
2018-12-19T15:10:34.252Z,28.23
2018-12-19T15:19:10.284Z,28.93
2018-12-19T15:21:46.986Z,31.47
2018-12-19T15:39:47.809Z,28.30
2018-12-19T15:48:44.352Z,36.70
2018-12-19T15:51:34.365Z,25.73
2018-12-19T15:54:07.858Z,31.13
2018-12-19T15:56:46.432Z,33.10
2018-12-19T15:59:19.940Z,31.57
2018-12-19T16:01:55.345Z,35.03
2018-12-19T16:04:28.849Z,33.97
2018-12-19T16:07:03.317Z,32.43
2018-12-19T16:09:36.808Z,34.63
2018-12-19T16:12:11.313Z,35.97
2018-12-19T16:14:44.795Z,36.67
2018-12-19T16:17:19.215Z,31.97
2018-12-19T16:19:52.727Z,28.87
2018-12-19T16:22:31.206Z,41.97
2018-12-19T16:25:05.384Z,32.53
2018-12-19T16:27:42.949Z,37.53
2018-12-19T16:30:32.426Z,36.00
2018-12-19T16:33:05.889Z,37.40
2018-12-19T16:35:52.380Z,41.30
2018-12-19T16:38:31.608Z,41.97
2018-12-19T16:41:12.523Z,41.37
2018-12-19T16:46:54.413Z,45.77
2018-12-19T16:49:33.929Z,44.67
2018-12-19T16:52:10.631Z,44.43
2018-12-19T16:54:47.278Z,44.93
2018-12-19T16:57:26.186Z,42.10
2018-12-19T16:59:59.641Z,48.53
2018-12-19T17:02:34.649Z,48.53
2018-12-19T17:05:11.163Z,51.93
2018-12-19T17:07:50.651Z,53.80
2018-12-19T17:10:25.638Z,52.47
2018-12-19T17:16:03.463Z,49.80
2018-12-19T17:18:42.595Z,50.30
2018-12-19T17:21:16.496Z,52.03
2018-12-19T17:27:07.387Z,59.33
2018-12-19T17:29:46.197Z,51.63
2018-12-19T17:32:34.930Z,49.60
2018-12-19T17:35:08.539Z,55.43
2018-12-19T17:37:41.992Z,51.73
2018-12-19T17:46:24.954Z,49.43
2018-12-19T17:49:00.366Z,49.80
2018-12-19T17:51:33.858Z,56.13
2018-12-19T17:54:08.322Z,51.30
2018-12-19T17:56:41.898Z,51.17
2018-12-19T17:59:24.774Z,42.90
2018-12-19T18:01:58.239Z,45.37
2018-12-19T18:04:36.312Z,48.53
2018-12-19T18:07:09.782Z,46.73
2018-12-19T18:09:44.254Z,45.83
2018-12-19T18:12:17.741Z,46.57
2018-12-19T18:14:56.316Z,48.23
2018-12-19T18:17:29.790Z,45.63
2018-12-19T18:20:10.382Z,46.97
2018-12-19T18:22:43.880Z,46.67
2018-12-19T18:25:21.322Z,47.33
2018-12-19T18:27:54.796Z,42.93
2018-12-19T18:30:28.647Z,45.30
2018-12-19T18:33:02.228Z,45.20
2018-12-19T18:35:37.847Z,44.07
2018-12-19T18:38:11.378Z,43.53
2018-12-19T18:40:44.843Z,48.10
2018-12-19T18:43:18.301Z,51.43
2018-12-19T18:45:57.270Z,43.93
2018-12-19T18:48:32.392Z,49.23
2018-12-19T18:51:05.955Z,44.70
2018-12-19T18:53:39.828Z,45.47
2018-12-19T18:56:32.007Z,49.50
2018-12-19T18:59:06.340Z,46.50
2018-12-19T19:01:39.855Z,48.47
2018-12-19T19:04:15.029Z,43.60
2018-12-19T19:06:49.188Z,49.63
2018-12-19T19:09:22.657Z,45.53
2018-12-19T19:11:56.187Z,40.90
2018-12-19T19:14:32.659Z,44.20
2018-12-19T19:17:06.105Z,43.70
2018-12-19T19:19:39.658Z,45.80
2018-12-19T19:22:13.256Z,44.27
2018-12-19T19:24:46.792Z,45.93
2018-12-19T19:27:20.236Z,44.43
2018-12-19T19:29:53.743Z,43.67
2018-12-19T19:32:27.575Z,48.50
2018-12-19T19:35:01.179Z,43.43
2018-12-19T19:37:34.727Z,44.20
2018-12-19T19:40:09.298Z,41.10
2018-12-19T19:42:42.775Z,38.10
2018-12-19T19:45:16.351Z,39.27
2018-12-19T19:47:49.830Z,43.07
2018-12-19T19:50:23.337Z,43.93
2018-12-19T19:52:56.793Z,50.23
2018-12-19T19:55:30.263Z,43.97
2018-12-19T19:58:03.708Z,46.23
2018-12-19T20:00:37.182Z,44.97
2018-12-19T20:03:10.847Z,42.50
2018-12-19T20:08:48.740Z,43.17
2018-12-19T20:11:23.033Z,43.03
2018-12-19T20:13:56.530Z,48.30
2018-12-19T20:16:47.960Z,49.30
2018-12-19T20:19:22.285Z,49.33
2018-12-19T20:21:55.716Z,45.77
2018-12-19T20:24:29.193Z,46.53
2018-12-19T20:27:02.628Z,42.27
2018-12-19T20:29:36.528Z,45.00
2018-12-19T20:32:09.983Z,42.77
2018-12-19T20:34:44.301Z,44.63
2018-12-19T20:37:18.161Z,45.67
2018-12-19T20:39:51.646Z,46.60
2018-12-19T20:42:25.096Z,43.50
2018-12-19T20:44:58.587Z,43.70
2018-12-19T20:47:32.069Z,43.97
2018-12-19T20:50:08.138Z,44.93
2018-12-19T20:52:41.569Z,46.20
2018-12-19T20:55:15.077Z,40.73
2018-12-19T20:57:49.054Z,41.73
2018-12-19T21:00:23.172Z,40.10
2018-12-19T21:02:56.676Z,42.73
2018-12-19T21:05:33.157Z,38.03
2018-12-19T21:08:06.626Z,41.47
2018-12-19T21:10:40.380Z,40.50
2018-12-19T21:13:13.817Z,38.57
2018-12-19T21:21:56.334Z,40.50
2018-12-19T21:24:29.806Z,40.83
2018-12-19T21:27:03.294Z,36.20
2018-12-19T21:29:36.809Z,39.57
2018-12-19T21:32:10.298Z,39.07
2018-12-19T21:34:43.770Z,38.77
2018-12-19T21:37:17.268Z,45.23
2018-12-19T21:43:00.608Z,43.10
2018-12-19T21:45:36.655Z,38.17
2018-12-19T21:57:12.066Z,42.57
2018-12-19T21:59:52.564Z,44.00
2018-12-19T22:02:29.933Z,40.30
2018-12-19T22:05:09.259Z,45.87
2018-12-19T22:07:43.064Z,43.40
2018-12-19T22:10:21.906Z,41.23
2018-12-19T22:12:55.029Z,38.40
2018-12-19T22:15:41.293Z,48.63
2018-12-19T22:18:20.528Z,39.23
2018-12-19T22:20:53.997Z,38.50
2018-12-19T22:23:27.523Z,42.67
2018-12-19T22:26:01.221Z,45.03
2018-12-19T22:28:35.814Z,42.17
2018-12-19T22:31:09.517Z,44.23
2018-12-19T22:33:49.243Z,45.00
2018-12-19T22:36:22.803Z,45.47
2018-12-19T22:39:01.829Z,42.43
2018-12-19T22:41:35.391Z,44.17
2018-12-19T22:44:16.427Z,42.40
2018-12-19T22:46:49.906Z,42.37
2018-12-19T22:49:25.559Z,44.17
2018-12-19T22:51:59.144Z,41.37
2018-12-19T22:54:38.931Z,44.83
2018-12-19T23:00:15.938Z,40.60
2018-12-19T23:02:55.055Z,45.07
2018-12-19T23:05:33.978Z,43.53
2018-12-19T23:08:38.440Z,44.63
2018-12-19T23:11:19.431Z,45.27
2018-12-19T23:13:52.980Z,41.37
2018-12-19T23:22:23.945Z,46.30
2018-12-19T23:24:57.425Z,44.07
2018-12-19T23:27:48.551Z,46.57
2018-12-19T23:30:22.061Z,47.83
2018-12-19T23:33:03.941Z,43.43
2018-12-19T23:35:48.136Z,41.03
2018-12-19T23:38:21.644Z,39.20
2018-12-19T23:40:57.111Z,44.07
2018-12-19T23:43:30.751Z,40.67
2018-12-19T23:46:05.359Z,42.17
2018-12-19T23:48:39.121Z,45.73
2018-12-19T23:51:22.389Z,34.97
2018-12-19T23:54:09.693Z,39.87
2018-12-19T23:56:46.614Z,41.93
2018-12-19T23:59:25.806Z,44.00
